sensor_id;sensor_type;location;lat;lon;timestamp;temperature;humidity
10133;DHT22;5106;50.926;7.080;2022-12-05T00:01:29;3.10;88.20
10133;DHT22;5106;50.926;7.080;2022-12-05T00:03:58;3.10;88.10
10133;DHT22;5106;50.926;7.080;2022-12-05T00:06:25;3.10;88.00
10133;DHT22;5106;50.926;7.080;2022-12-05T00:08:51;3.10;88.10
10133;DHT22;5106;50.926;7.080;2022-12-05T00:11:23;3.10;88.00
10133;DHT22;5106;50.926;7.080;2022-12-05T00:13:50;3.00;88.00
10133;DHT22;5106;50.926;7.080;2022-12-05T00:16:19;3.00;88.10
10133;DHT22;5106;50.926;7.080;2022-12-05T00:18:45;3.00;88.00
10133;DHT22;5106;50.926;7.080;2022-12-05T00:21:16;3.00;88.10
10133;DHT22;5106;50.926;7.080;2022-12-05T00:23:42;3.00;88.10
10133;DHT22;5106;50.926;7.080;2022-12-05T00:26:08;3.00;88.10
10133;DHT22;5106;50.926;7.080;2022-12-05T00:28:34;3.00;88.10
10133;DHT22;5106;50.926;7.080;2022-12-05T00:31:08;3.00;88.10
10133;DHT22;5106;50.926;7.080;2022-12-05T00:33:34;3.00;88.20
10133;DHT22;5106;50.926;7.080;2022-12-05T00:36:03;3.00;88.10
10133;DHT22;5106;50.926;7.080;2022-12-05T00:38:28;3.00;88.10
10133;DHT22;5106;50.926;7.080;2022-12-05T00:40:54;3.00;88.00
10133;DHT22;5106;50.926;7.080;2022-12-05T00:43:20;3.10;88.10
10133;DHT22;5106;50.926;7.080;2022-12-05T00:45:45;3.10;88.10
10133;DHT22;5106;50.926;7.080;2022-12-05T00:48:11;3.10;88.00
10133;DHT22;5106;50.926;7.080;2022-12-05T00:50:36;3.20;88.00
10133;DHT22;5106;50.926;7.080;2022-12-05T00:53:02;3.20;87.90
10133;DHT22;5106;50.926;7.080;2022-12-05T00:55:27;3.30;87.90
10133;DHT22;5106;50.926;7.080;2022-12-05T00:57:53;3.20;87.80
10133;DHT22;5106;50.926;7.080;2022-12-05T01:00:19;3.30;87.90
10133;DHT22;5106;50.926;7.080;2022-12-05T01:02:44;3.20;87.80
10133;DHT22;5106;50.926;7.080;2022-12-05T01:05:10;3.20;87.80
10133;DHT22;5106;50.926;7.080;2022-12-05T01:07:35;3.10;87.90
10133;DHT22;5106;50.926;7.080;2022-12-05T01:10:01;3.20;88.00
10133;DHT22;5106;50.926;7.080;2022-12-05T01:12:27;3.20;87.90
10133;DHT22;5106;50.926;7.080;2022-12-05T01:14:53;3.30;88.00
10133;DHT22;5106;50.926;7.080;2022-12-05T01:17:19;3.30;87.90
10133;DHT22;5106;50.926;7.080;2022-12-05T01:19:44;3.30;87.80
10133;DHT22;5106;50.926;7.080;2022-12-05T01:22:10;3.20;87.70
10133;DHT22;5106;50.926;7.080;2022-12-05T01:24:35;3.20;87.80
10133;DHT22;5106;50.926;7.080;2022-12-05T01:27:01;3.10;87.80
10133;DHT22;5106;50.926;7.080;2022-12-05T01:29:27;3.10;87.80
10133;DHT22;5106;50.926;7.080;2022-12-05T01:31:53;3.10;87.90
10133;DHT22;5106;50.926;7.080;2022-12-05T01:34:19;3.10;87.90
10133;DHT22;5106;50.926;7.080;2022-12-05T01:36:46;3.10;87.90
10133;DHT22;5106;50.926;7.080;2022-12-05T01:39:12;3.10;88.00
10133;DHT22;5106;50.926;7.080;2022-12-05T01:41:41;3.20;88.00
10133;DHT22;5106;50.926;7.080;2022-12-05T01:46:54;3.20;88.00
10133;DHT22;5106;50.926;7.080;2022-12-05T01:51:52;3.30;88.00
10133;DHT22;5106;50.926;7.080;2022-12-05T01:54:19;3.30;88.00
10133;DHT22;5106;50.926;7.080;2022-12-05T01:56:53;3.30;88.00
10133;DHT22;5106;50.926;7.080;2022-12-05T01:59:20;3.30;88.00
10133;DHT22;5106;50.926;7.080;2022-12-05T02:01:48;3.30;88.00
10133;DHT22;5106;50.926;7.080;2022-12-05T02:04:14;3.30;88.00
10133;DHT22;5106;50.926;7.080;2022-12-05T02:06:39;3.30;88.00
10133;DHT22;5106;50.926;7.080;2022-12-05T02:09:05;3.40;87.90
10133;DHT22;5106;50.926;7.080;2022-12-05T02:11:32;3.40;87.90
10133;DHT22;5106;50.926;7.080;2022-12-05T02:21:40;3.40;88.00
10133;DHT22;5106;50.926;7.080;2022-12-05T02:30:05;3.40;88.00
10133;DHT22;5106;50.926;7.080;2022-12-05T02:38:07;3.40;88.10
10133;DHT22;5106;50.926;7.080;2022-12-05T02:41:44;3.30;88.20
10133;DHT22;5106;50.926;7.080;2022-12-05T02:44:02;3.30;88.20
10133;DHT22;5106;50.926;7.080;2022-12-05T02:46:30;3.30;88.30
10133;DHT22;5106;50.926;7.080;2022-12-05T02:49:09;3.30;88.30
10133;DHT22;5106;50.926;7.080;2022-12-05T02:51:42;3.30;88.30
10133;DHT22;5106;50.926;7.080;2022-12-05T02:54:22;3.30;88.30
10133;DHT22;5106;50.926;7.080;2022-12-05T02:56:49;3.30;88.40
10133;DHT22;5106;50.926;7.080;2022-12-05T02:59:16;3.30;88.40
10133;DHT22;5106;50.926;7.080;2022-12-05T03:01:44;3.30;88.50
10133;DHT22;5106;50.926;7.080;2022-12-05T03:04:12;3.30;88.40
10133;DHT22;5106;50.926;7.080;2022-12-05T03:06:44;3.20;88.40
10133;DHT22;5106;50.926;7.080;2022-12-05T03:09:22;3.20;88.30
10133;DHT22;5106;50.926;7.080;2022-12-05T03:11:55;3.20;88.30
10133;DHT22;5106;50.926;7.080;2022-12-05T03:14:27;3.10;88.30
10133;DHT22;5106;50.926;7.080;2022-12-05T03:16:57;3.10;88.20
10133;DHT22;5106;50.926;7.080;2022-12-05T03:19:31;3.00;88.20
10133;DHT22;5106;50.926;7.080;2022-12-05T03:24:25;3.00;88.20
10133;DHT22;5106;50.926;7.080;2022-12-05T03:27:08;3.00;88.10
10133;DHT22;5106;50.926;7.080;2022-12-05T03:32:48;2.90;88.20
10133;DHT22;5106;50.926;7.080;2022-12-05T03:38:11;2.90;88.30
10133;DHT22;5106;50.926;7.080;2022-12-05T03:40:45;2.80;88.20
10133;DHT22;5106;50.926;7.080;2022-12-05T03:46:05;2.70;88.20
10133;DHT22;5106;50.926;7.080;2022-12-05T03:48:37;2.70;88.20
10133;DHT22;5106;50.926;7.080;2022-12-05T03:51:06;2.70;88.20
10133;DHT22;5106;50.926;7.080;2022-12-05T03:53:49;2.60;88.20
10133;DHT22;5106;50.926;7.080;2022-12-05T03:56:44;2.60;88.20
10133;DHT22;5106;50.926;7.080;2022-12-05T03:59:29;2.60;88.20
10133;DHT22;5106;50.926;7.080;2022-12-05T04:01:59;2.60;88.20
10133;DHT22;5106;50.926;7.080;2022-12-05T04:04:33;2.60;88.20
10133;DHT22;5106;50.926;7.080;2022-12-05T04:07:02;2.60;88.10
10133;DHT22;5106;50.926;7.080;2022-12-05T04:09:37;2.50;88.10
10133;DHT22;5106;50.926;7.080;2022-12-05T04:12:09;2.50;88.00
10133;DHT22;5106;50.926;7.080;2022-12-05T04:14:48;2.50;88.00
10133;DHT22;5106;50.926;7.080;2022-12-05T04:17:26;2.40;88.00
10133;DHT22;5106;50.926;7.080;2022-12-05T04:19:59;2.40;88.00
10133;DHT22;5106;50.926;7.080;2022-12-05T04:22:45;2.30;88.00
10133;DHT22;5106;50.926;7.080;2022-12-05T04:25:12;2.30;88.00
10133;DHT22;5106;50.926;7.080;2022-12-05T04:28:32;2.30;88.10
10133;DHT22;5106;50.926;7.080;2022-12-05T04:31:12;2.20;88.10
10133;DHT22;5106;50.926;7.080;2022-12-05T04:33:52;2.20;88.20
10133;DHT22;5106;50.926;7.080;2022-12-05T04:36:39;2.20;88.20
10133;DHT22;5106;50.926;7.080;2022-12-05T04:39:10;2.20;88.20
10133;DHT22;5106;50.926;7.080;2022-12-05T04:41:48;2.10;88.20
10133;DHT22;5106;50.926;7.080;2022-12-05T04:44:18;2.10;88.20
10133;DHT22;5106;50.926;7.080;2022-12-05T04:46:45;2.10;88.20
10133;DHT22;5106;50.926;7.080;2022-12-05T04:49:18;2.10;88.20
10133;DHT22;5106;50.926;7.080;2022-12-05T04:51:46;2.10;88.30
10133;DHT22;5106;50.926;7.080;2022-12-05T04:54:20;2.00;88.30
10133;DHT22;5106;50.926;7.080;2022-12-05T04:56:50;2.00;88.30
10133;DHT22;5106;50.926;7.080;2022-12-05T04:59:16;2.00;88.30
10133;DHT22;5106;50.926;7.080;2022-12-05T05:01:49;2.00;88.40
10133;DHT22;5106;50.926;7.080;2022-12-05T05:04:25;2.00;88.30
10133;DHT22;5106;50.926;7.080;2022-12-05T05:06:51;2.00;88.30
10133;DHT22;5106;50.926;7.080;2022-12-05T05:09:17;1.90;88.30
10133;DHT22;5106;50.926;7.080;2022-12-05T05:11:43;1.90;88.30
10133;DHT22;5106;50.926;7.080;2022-12-05T05:14:08;1.80;88.40
10133;DHT22;5106;50.926;7.080;2022-12-05T05:16:41;1.80;88.30
10133;DHT22;5106;50.926;7.080;2022-12-05T05:19:07;1.80;88.40
10133;DHT22;5106;50.926;7.080;2022-12-05T05:21:36;1.80;88.40
10133;DHT22;5106;50.926;7.080;2022-12-05T05:24:02;1.80;88.40
10133;DHT22;5106;50.926;7.080;2022-12-05T05:26:29;1.70;88.40
10133;DHT22;5106;50.926;7.080;2022-12-05T05:28:56;1.70;88.40
10133;DHT22;5106;50.926;7.080;2022-12-05T05:31:22;1.70;88.40
10133;DHT22;5106;50.926;7.080;2022-12-05T05:33:52;1.70;88.40
10133;DHT22;5106;50.926;7.080;2022-12-05T05:36:19;1.70;88.40
10133;DHT22;5106;50.926;7.080;2022-12-05T05:38:47;1.70;88.40
10133;DHT22;5106;50.926;7.080;2022-12-05T05:41:16;1.70;88.40
10133;DHT22;5106;50.926;7.080;2022-12-05T05:43:43;1.70;88.30
10133;DHT22;5106;50.926;7.080;2022-12-05T05:46:09;1.70;88.30
10133;DHT22;5106;50.926;7.080;2022-12-05T05:48:35;1.70;88.30
10133;DHT22;5106;50.926;7.080;2022-12-05T05:51:01;1.70;88.30
10133;DHT22;5106;50.926;7.080;2022-12-05T05:53:27;1.70;88.40
10133;DHT22;5106;50.926;7.080;2022-12-05T05:55:53;1.60;88.30
10133;DHT22;5106;50.926;7.080;2022-12-05T05:58:18;1.60;88.30
10133;DHT22;5106;50.926;7.080;2022-12-05T06:00:44;1.60;88.30
10133;DHT22;5106;50.926;7.080;2022-12-05T06:03:09;1.60;88.40
10133;DHT22;5106;50.926;7.080;2022-12-05T06:05:35;1.60;88.30
10133;DHT22;5106;50.926;7.080;2022-12-05T06:08:01;1.60;88.30
10133;DHT22;5106;50.926;7.080;2022-12-05T06:10:27;1.60;88.40
10133;DHT22;5106;50.926;7.080;2022-12-05T06:12:54;1.60;88.40
10133;DHT22;5106;50.926;7.080;2022-12-05T06:15:20;1.60;88.40
10133;DHT22;5106;50.926;7.080;2022-12-05T06:17:45;1.60;88.50
10133;DHT22;5106;50.926;7.080;2022-12-05T06:20:11;1.60;88.50
10133;DHT22;5106;50.926;7.080;2022-12-05T06:22:37;1.60;88.60
10133;DHT22;5106;50.926;7.080;2022-12-05T06:25:03;1.60;88.60
10133;DHT22;5106;50.926;7.080;2022-12-05T06:27:29;1.60;88.60
10133;DHT22;5106;50.926;7.080;2022-12-05T06:29:58;1.60;88.60
10133;DHT22;5106;50.926;7.080;2022-12-05T06:32:23;1.60;88.60
10133;DHT22;5106;50.926;7.080;2022-12-05T06:34:49;1.60;88.60
10133;DHT22;5106;50.926;7.080;2022-12-05T06:37:14;1.60;88.60
10133;DHT22;5106;50.926;7.080;2022-12-05T06:39:40;1.60;88.60
10133;DHT22;5106;50.926;7.080;2022-12-05T06:42:06;1.60;88.50
10133;DHT22;5106;50.926;7.080;2022-12-05T06:44:31;1.60;88.60
10133;DHT22;5106;50.926;7.080;2022-12-05T06:46:57;1.60;88.50
10133;DHT22;5106;50.926;7.080;2022-12-05T06:49:23;1.60;88.60
10133;DHT22;5106;50.926;7.080;2022-12-05T06:51:52;1.60;88.60
10133;DHT22;5106;50.926;7.080;2022-12-05T06:54:18;1.60;88.70
10133;DHT22;5106;50.926;7.080;2022-12-05T06:56:44;1.60;88.60
10133;DHT22;5106;50.926;7.080;2022-12-05T06:59:10;1.60;88.70
10133;DHT22;5106;50.926;7.080;2022-12-05T07:01:35;1.60;88.70
10133;DHT22;5106;50.926;7.080;2022-12-05T07:04:19;1.60;88.80
10133;DHT22;5106;50.926;7.080;2022-12-05T07:06:48;1.60;88.80
10133;DHT22;5106;50.926;7.080;2022-12-05T07:09:15;1.60;88.80
10133;DHT22;5106;50.926;7.080;2022-12-05T07:11:40;1.70;88.90
10133;DHT22;5106;50.926;7.080;2022-12-05T07:14:06;1.60;88.90
10133;DHT22;5106;50.926;7.080;2022-12-05T07:16:34;1.70;89.00
10133;DHT22;5106;50.926;7.080;2022-12-05T07:19:00;1.70;89.10
10133;DHT22;5106;50.926;7.080;2022-12-05T07:21:25;1.70;89.00
10133;DHT22;5106;50.926;7.080;2022-12-05T07:23:51;1.80;89.00
10133;DHT22;5106;50.926;7.080;2022-12-05T07:26:22;1.80;89.00
10133;DHT22;5106;50.926;7.080;2022-12-05T07:28:49;1.80;89.10
10133;DHT22;5106;50.926;7.080;2022-12-05T07:31:17;1.80;89.10
10133;DHT22;5106;50.926;7.080;2022-12-05T07:33:44;1.90;89.10
10133;DHT22;5106;50.926;7.080;2022-12-05T07:36:15;1.90;89.10
10133;DHT22;5106;50.926;7.080;2022-12-05T07:38:42;1.90;89.10
10133;DHT22;5106;50.926;7.080;2022-12-05T07:41:13;1.90;89.20
10133;DHT22;5106;50.926;7.080;2022-12-05T07:43:41;2.00;89.20
10133;DHT22;5106;50.926;7.080;2022-12-05T07:46:07;2.00;89.20
10133;DHT22;5106;50.926;7.080;2022-12-05T07:48:33;2.00;89.10
10133;DHT22;5106;50.926;7.080;2022-12-05T07:51:04;2.00;89.20
10133;DHT22;5106;50.926;7.080;2022-12-05T07:53:30;2.00;89.20
10133;DHT22;5106;50.926;7.080;2022-12-05T07:56:00;2.00;89.20
10133;DHT22;5106;50.926;7.080;2022-12-05T07:58:30;2.00;89.20
10133;DHT22;5106;50.926;7.080;2022-12-05T08:00:57;2.00;89.20
10133;DHT22;5106;50.926;7.080;2022-12-05T08:03:23;2.00;89.10
10133;DHT22;5106;50.926;7.080;2022-12-05T08:05:49;2.10;89.10
10133;DHT22;5106;50.926;7.080;2022-12-05T08:08:15;2.00;89.10
10133;DHT22;5106;50.926;7.080;2022-12-05T08:10:40;2.00;89.10
10133;DHT22;5106;50.926;7.080;2022-12-05T08:13:06;2.10;89.20
10133;DHT22;5106;50.926;7.080;2022-12-05T08:15:34;2.00;89.20
10133;DHT22;5106;50.926;7.080;2022-12-05T08:18:00;2.10;89.20
10133;DHT22;5106;50.926;7.080;2022-12-05T08:20:26;2.10;89.20
10133;DHT22;5106;50.926;7.080;2022-12-05T08:22:52;2.10;89.20
10133;DHT22;5106;50.926;7.080;2022-12-05T08:25:18;2.10;89.10
10133;DHT22;5106;50.926;7.080;2022-12-05T08:27:44;2.10;89.10
10133;DHT22;5106;50.926;7.080;2022-12-05T08:30:10;2.10;89.20
10133;DHT22;5106;50.926;7.080;2022-12-05T08:32:35;2.10;89.20
10133;DHT22;5106;50.926;7.080;2022-12-05T08:35:01;2.10;89.30
10133;DHT22;5106;50.926;7.080;2022-12-05T08:37:26;2.20;89.20
10133;DHT22;5106;50.926;7.080;2022-12-05T08:39:52;2.20;89.20
10133;DHT22;5106;50.926;7.080;2022-12-05T08:42:17;2.20;89.20
10133;DHT22;5106;50.926;7.080;2022-12-05T08:44:43;2.20;89.20
10133;DHT22;5106;50.926;7.080;2022-12-05T08:47:09;2.20;89.20
10133;DHT22;5106;50.926;7.080;2022-12-05T08:49:34;2.20;89.20
10133;DHT22;5106;50.926;7.080;2022-12-05T08:52:00;2.30;89.20
10133;DHT22;5106;50.926;7.080;2022-12-05T08:54:25;2.30;89.30
10133;DHT22;5106;50.926;7.080;2022-12-05T08:56:51;2.30;89.30
10133;DHT22;5106;50.926;7.080;2022-12-05T08:59:17;2.40;89.30
10133;DHT22;5106;50.926;7.080;2022-12-05T09:01:43;2.40;89.30
10133;DHT22;5106;50.926;7.080;2022-12-05T09:04:09;2.40;89.30
10133;DHT22;5106;50.926;7.080;2022-12-05T09:06:35;2.40;89.30
10133;DHT22;5106;50.926;7.080;2022-12-05T09:09:03;2.50;89.10
10133;DHT22;5106;50.926;7.080;2022-12-05T09:11:32;2.50;89.10
10133;DHT22;5106;50.926;7.080;2022-12-05T09:13:59;2.50;89.00
10133;DHT22;5106;50.926;7.080;2022-12-05T09:16:31;2.50;89.00
10133;DHT22;5106;50.926;7.080;2022-12-05T09:18:57;2.50;89.00
10133;DHT22;5106;50.926;7.080;2022-12-05T09:21:26;2.50;89.00
10133;DHT22;5106;50.926;7.080;2022-12-05T09:23:53;2.50;89.00
10133;DHT22;5106;50.926;7.080;2022-12-05T09:26:23;2.50;89.00
10133;DHT22;5106;50.926;7.080;2022-12-05T09:28:50;2.50;89.00
10133;DHT22;5106;50.926;7.080;2022-12-05T09:31:18;2.60;89.00
10133;DHT22;5106;50.926;7.080;2022-12-05T09:33:44;2.50;89.00
10133;DHT22;5106;50.926;7.080;2022-12-05T09:36:25;2.50;89.00
10133;DHT22;5106;50.926;7.080;2022-12-05T09:38:51;2.60;89.00
10133;DHT22;5106;50.926;7.080;2022-12-05T09:47:22;2.60;89.10
10133;DHT22;5106;50.926;7.080;2022-12-05T09:52:42;2.70;89.10
10133;DHT22;5106;50.926;7.080;2022-12-05T09:55:17;2.70;89.10
10133;DHT22;5106;50.926;7.080;2022-12-05T09:57:56;2.70;89.00
10133;DHT22;5106;50.926;7.080;2022-12-05T10:00:22;2.80;89.00
10133;DHT22;5106;50.926;7.080;2022-12-05T10:02:54;2.80;89.00
10133;DHT22;5106;50.926;7.080;2022-12-05T10:05:42;2.80;88.90
10133;DHT22;5106;50.926;7.080;2022-12-05T10:08:31;2.80;89.00
10133;DHT22;5106;50.926;7.080;2022-12-05T10:11:27;2.90;89.00
10133;DHT22;5106;50.926;7.080;2022-12-05T10:16:55;2.90;88.90
10133;DHT22;5106;50.926;7.080;2022-12-05T10:19:37;2.80;88.70
10133;DHT22;5106;50.926;7.080;2022-12-05T10:22:12;2.80;88.80
10133;DHT22;5106;50.926;7.080;2022-12-05T10:24:45;2.80;88.80
10133;DHT22;5106;50.926;7.080;2022-12-05T10:27:18;2.80;88.80
10133;DHT22;5106;50.926;7.080;2022-12-05T10:35:18;2.80;88.70
10133;DHT22;5106;50.926;7.080;2022-12-05T10:37:56;2.80;88.80
10133;DHT22;5106;50.926;7.080;2022-12-05T10:40:32;2.80;88.80
10133;DHT22;5106;50.926;7.080;2022-12-05T10:42:58;2.80;88.80
10133;DHT22;5106;50.926;7.080;2022-12-05T10:45:24;2.80;88.90
10133;DHT22;5106;50.926;7.080;2022-12-05T10:47:54;2.90;88.90
10133;DHT22;5106;50.926;7.080;2022-12-05T10:52:49;2.90;89.00
10133;DHT22;5106;50.926;7.080;2022-12-05T10:55:17;2.90;89.00
10133;DHT22;5106;50.926;7.080;2022-12-05T10:57:49;2.90;89.00
10133;DHT22;5106;50.926;7.080;2022-12-05T11:00:15;2.90;89.10
10133;DHT22;5106;50.926;7.080;2022-12-05T11:02:46;3.00;89.20
10133;DHT22;5106;50.926;7.080;2022-12-05T11:05:12;3.00;89.10
10133;DHT22;5106;50.926;7.080;2022-12-05T11:07:46;3.00;89.10
10133;DHT22;5106;50.926;7.080;2022-12-05T11:10:23;3.00;89.10
10133;DHT22;5106;50.926;7.080;2022-12-05T11:12:50;3.00;89.10
10133;DHT22;5106;50.926;7.080;2022-12-05T11:17:44;3.00;89.10
10133;DHT22;5106;50.926;7.080;2022-12-05T11:22:46;3.10;89.20
10133;DHT22;5106;50.926;7.080;2022-12-05T11:25:31;3.10;89.20
10133;DHT22;5106;50.926;7.080;2022-12-05T11:28:00;3.10;89.20
10133;DHT22;5106;50.926;7.080;2022-12-05T11:30:27;3.10;89.20
10133;DHT22;5106;50.926;7.080;2022-12-05T11:33:19;3.10;89.20
10133;DHT22;5106;50.926;7.080;2022-12-05T11:35:46;3.10;89.20
10133;DHT22;5106;50.926;7.080;2022-12-05T11:38:13;3.10;89.20
10133;DHT22;5106;50.926;7.080;2022-12-05T11:40:51;3.20;89.20
10133;DHT22;5106;50.926;7.080;2022-12-05T11:43:41;3.20;89.20
10133;DHT22;5106;50.926;7.080;2022-12-05T11:46:21;3.20;89.20
10133;DHT22;5106;50.926;7.080;2022-12-05T11:49:02;3.20;89.20
10133;DHT22;5106;50.926;7.080;2022-12-05T11:51:43;3.10;88.90
10133;DHT22;5106;50.926;7.080;2022-12-05T11:54:20;3.10;88.90
10133;DHT22;5106;50.926;7.080;2022-12-05T11:56:56;3.10;89.00
10133;DHT22;5106;50.926;7.080;2022-12-05T11:59:51;3.10;89.10
10133;DHT22;5106;50.926;7.080;2022-12-05T12:17:06;3.20;89.40
10133;DHT22;5106;50.926;7.080;2022-12-05T12:19:31;3.20;89.10
10133;DHT22;5106;50.926;7.080;2022-12-05T12:25:51;3.10;88.90
10133;DHT22;5106;50.926;7.080;2022-12-05T12:28:33;3.10;89.00
10133;DHT22;5106;50.926;7.080;2022-12-05T12:36:54;3.20;89.10
10133;DHT22;5106;50.926;7.080;2022-12-05T12:42:23;3.20;88.70
10133;DHT22;5106;50.926;7.080;2022-12-05T12:47:54;3.30;88.90
10133;DHT22;5106;50.926;7.080;2022-12-05T12:50:31;3.30;88.80
10133;DHT22;5106;50.926;7.080;2022-12-05T13:04:14;3.40;88.50
10133;DHT22;5106;50.926;7.080;2022-12-05T13:06:57;3.50;88.50
10133;DHT22;5106;50.926;7.080;2022-12-05T13:09:31;3.40;88.50
10133;DHT22;5106;50.926;7.080;2022-12-05T13:12:04;3.40;88.40
10133;DHT22;5106;50.926;7.080;2022-12-05T13:14:33;3.40;88.40
10133;DHT22;5106;50.926;7.080;2022-12-05T13:17:00;3.40;88.50
10133;DHT22;5106;50.926;7.080;2022-12-05T13:19:30;3.40;88.50
10133;DHT22;5106;50.926;7.080;2022-12-05T13:22:03;3.40;88.40
10133;DHT22;5106;50.926;7.080;2022-12-05T13:24:30;3.30;88.30
10133;DHT22;5106;50.926;7.080;2022-12-05T13:27:01;3.30;88.30
10133;DHT22;5106;50.926;7.080;2022-12-05T13:29:35;3.30;88.40
10133;DHT22;5106;50.926;7.080;2022-12-05T13:32:04;3.30;88.50
10133;DHT22;5106;50.926;7.080;2022-12-05T13:34:45;3.30;88.60
10133;DHT22;5106;50.926;7.080;2022-12-05T13:37:31;3.20;88.60
10133;DHT22;5106;50.926;7.080;2022-12-05T13:40:27;3.30;88.80
10133;DHT22;5106;50.926;7.080;2022-12-05T13:43:14;3.30;88.80
10133;DHT22;5106;50.926;7.080;2022-12-05T13:45:41;3.30;88.90
10133;DHT22;5106;50.926;7.080;2022-12-05T13:48:21;3.20;88.90
10133;DHT22;5106;50.926;7.080;2022-12-05T13:53:33;3.30;88.90
10133;DHT22;5106;50.926;7.080;2022-12-05T13:59:02;3.30;88.60
10133;DHT22;5106;50.926;7.080;2022-12-05T14:01:41;3.30;88.60
10133;DHT22;5106;50.926;7.080;2022-12-05T14:04:22;3.20;88.50
10133;DHT22;5106;50.926;7.080;2022-12-05T14:17:24;3.10;88.40
10133;DHT22;5106;50.926;7.080;2022-12-05T14:20:19;3.10;88.50
10133;DHT22;5106;50.926;7.080;2022-12-05T14:28:59;3.10;88.70
10133;DHT22;5106;50.926;7.080;2022-12-05T14:37:55;3.10;88.70
10133;DHT22;5106;50.926;7.080;2022-12-05T14:40:31;3.10;88.60
10133;DHT22;5106;50.926;7.080;2022-12-05T14:43:07;3.10;88.50
10133;DHT22;5106;50.926;7.080;2022-12-05T14:48:40;3.10;88.60
10133;DHT22;5106;50.926;7.080;2022-12-05T14:54:09;3.10;88.70
10133;DHT22;5106;50.926;7.080;2022-12-05T14:56:51;3.10;88.70
10133;DHT22;5106;50.926;7.080;2022-12-05T14:59:33;3.10;88.60
10133;DHT22;5106;50.926;7.080;2022-12-05T15:02:01;3.10;88.70
10133;DHT22;5106;50.926;7.080;2022-12-05T15:04:54;3.10;88.60
10133;DHT22;5106;50.926;7.080;2022-12-05T15:07:20;3.10;88.50
10133;DHT22;5106;50.926;7.080;2022-12-05T15:09:56;3.10;88.60
10133;DHT22;5106;50.926;7.080;2022-12-05T15:12:27;3.10;88.50
10133;DHT22;5106;50.926;7.080;2022-12-05T15:20:41;3.10;88.50
10133;DHT22;5106;50.926;7.080;2022-12-05T15:26:02;3.10;88.50
10133;DHT22;5106;50.926;7.080;2022-12-05T15:28:28;3.10;88.40
10133;DHT22;5106;50.926;7.080;2022-12-05T15:30:54;3.10;88.40
10133;DHT22;5106;50.926;7.080;2022-12-05T15:33:22;3.10;88.40
10133;DHT22;5106;50.926;7.080;2022-12-05T15:35:49;3.00;88.40
10133;DHT22;5106;50.926;7.080;2022-12-05T15:38:24;3.00;88.30
10133;DHT22;5106;50.926;7.080;2022-12-05T15:40:51;3.00;88.50
10133;DHT22;5106;50.926;7.080;2022-12-05T15:43:35;3.00;88.50
10133;DHT22;5106;50.926;7.080;2022-12-05T15:48:48;2.90;88.60
10133;DHT22;5106;50.926;7.080;2022-12-05T15:51:15;2.90;88.70
10133;DHT22;5106;50.926;7.080;2022-12-05T15:53:48;2.80;88.70
10133;DHT22;5106;50.926;7.080;2022-12-05T15:56:58;2.70;88.60
10133;DHT22;5106;50.926;7.080;2022-12-05T15:59:27;2.70;88.60
10133;DHT22;5106;50.926;7.080;2022-12-05T16:02:04;2.70;88.70
10133;DHT22;5106;50.926;7.080;2022-12-05T16:04:45;2.60;88.60
10133;DHT22;5106;50.926;7.080;2022-12-05T16:07:13;2.60;88.70
10133;DHT22;5106;50.926;7.080;2022-12-05T16:09:41;2.60;88.80
10133;DHT22;5106;50.926;7.080;2022-12-05T16:14:54;2.60;88.80
10133;DHT22;5106;50.926;7.080;2022-12-05T16:17:21;2.50;88.70
10133;DHT22;5106;50.926;7.080;2022-12-05T16:19:47;2.50;88.80
10133;DHT22;5106;50.926;7.080;2022-12-05T16:24:44;2.50;88.90
10133;DHT22;5106;50.926;7.080;2022-12-05T16:27:24;2.50;88.90
10133;DHT22;5106;50.926;7.080;2022-12-05T16:32:42;2.50;89.00
10133;DHT22;5106;50.926;7.080;2022-12-05T16:45:54;2.40;89.10
10133;DHT22;5106;50.926;7.080;2022-12-05T16:48:26;2.30;89.10
10133;DHT22;5106;50.926;7.080;2022-12-05T16:51:21;2.30;89.10
10133;DHT22;5106;50.926;7.080;2022-12-05T16:53:52;2.40;89.10
10133;DHT22;5106;50.926;7.080;2022-12-05T16:58:48;2.40;89.10
10133;DHT22;5106;50.926;7.080;2022-12-05T17:01:20;2.40;89.00
10133;DHT22;5106;50.926;7.080;2022-12-05T17:03:46;2.40;89.00
10133;DHT22;5106;50.926;7.080;2022-12-05T17:06:12;2.40;89.00
10133;DHT22;5106;50.926;7.080;2022-12-05T17:08:39;2.40;89.00
10133;DHT22;5106;50.926;7.080;2022-12-05T17:11:09;2.40;88.90
10133;DHT22;5106;50.926;7.080;2022-12-05T17:13:38;2.30;88.90
10133;DHT22;5106;50.926;7.080;2022-12-05T17:16:04;2.30;89.00
10133;DHT22;5106;50.926;7.080;2022-12-05T17:18:29;2.40;89.10
10133;DHT22;5106;50.926;7.080;2022-12-05T17:20:56;2.40;89.10
10133;DHT22;5106;50.926;7.080;2022-12-05T17:23:22;2.40;89.10
10133;DHT22;5106;50.926;7.080;2022-12-05T17:25:55;2.30;89.00
10133;DHT22;5106;50.926;7.080;2022-12-05T17:28:21;2.30;89.00
10133;DHT22;5106;50.926;7.080;2022-12-05T17:30:47;2.30;89.10
10133;DHT22;5106;50.926;7.080;2022-12-05T17:33:15;2.30;89.00
10133;DHT22;5106;50.926;7.080;2022-12-05T17:35:41;2.30;89.00
10133;DHT22;5106;50.926;7.080;2022-12-05T17:38:08;2.30;89.00
10133;DHT22;5106;50.926;7.080;2022-12-05T17:40:36;2.30;89.10
10133;DHT22;5106;50.926;7.080;2022-12-05T17:43:02;2.30;89.10
10133;DHT22;5106;50.926;7.080;2022-12-05T17:45:28;2.30;89.10
10133;DHT22;5106;50.926;7.080;2022-12-05T17:47:54;2.30;89.10
10133;DHT22;5106;50.926;7.080;2022-12-05T17:50:22;2.30;89.10
10133;DHT22;5106;50.926;7.080;2022-12-05T17:52:49;2.20;89.00
10133;DHT22;5106;50.926;7.080;2022-12-05T17:55:18;2.20;89.00
10133;DHT22;5106;50.926;7.080;2022-12-05T17:57:44;2.10;89.00
10133;DHT22;5106;50.926;7.080;2022-12-05T18:00:12;2.20;89.10
10133;DHT22;5106;50.926;7.080;2022-12-05T18:02:39;2.10;89.10
10133;DHT22;5106;50.926;7.080;2022-12-05T18:05:05;2.10;89.10
10133;DHT22;5106;50.926;7.080;2022-12-05T18:07:30;2.10;89.20
10133;DHT22;5106;50.926;7.080;2022-12-05T18:09:56;2.10;89.10
10133;DHT22;5106;50.926;7.080;2022-12-05T18:12:22;2.00;89.20
10133;DHT22;5106;50.926;7.080;2022-12-05T18:14:47;2.00;89.20
10133;DHT22;5106;50.926;7.080;2022-12-05T18:17:13;2.00;89.30
10133;DHT22;5106;50.926;7.080;2022-12-05T18:19:38;2.00;89.30
10133;DHT22;5106;50.926;7.080;2022-12-05T18:22:04;2.00;89.40
10133;DHT22;5106;50.926;7.080;2022-12-05T18:24:29;2.00;89.40
10133;DHT22;5106;50.926;7.080;2022-12-05T18:26:55;2.00;89.40
10133;DHT22;5106;50.926;7.080;2022-12-05T18:29:24;2.00;89.40
10133;DHT22;5106;50.926;7.080;2022-12-05T18:31:49;2.00;89.40
10133;DHT22;5106;50.926;7.080;2022-12-05T18:34:15;2.00;89.40
10133;DHT22;5106;50.926;7.080;2022-12-05T18:36:41;2.00;89.40
10133;DHT22;5106;50.926;7.080;2022-12-05T18:39:11;2.00;89.30
10133;DHT22;5106;50.926;7.080;2022-12-05T18:41:37;2.10;89.30
10133;DHT22;5106;50.926;7.080;2022-12-05T18:44:02;2.10;89.30
10133;DHT22;5106;50.926;7.080;2022-12-05T18:46:28;2.10;89.30
10133;DHT22;5106;50.926;7.080;2022-12-05T18:48:54;2.10;89.30
10133;DHT22;5106;50.926;7.080;2022-12-05T18:51:21;2.10;89.30
10133;DHT22;5106;50.926;7.080;2022-12-05T18:53:51;2.10;89.30
10133;DHT22;5106;50.926;7.080;2022-12-05T18:56:22;2.10;89.30
10133;DHT22;5106;50.926;7.080;2022-12-05T18:59:00;2.10;89.20
10133;DHT22;5106;50.926;7.080;2022-12-05T19:01:27;2.10;89.30
10133;DHT22;5106;50.926;7.080;2022-12-05T19:03:57;2.20;89.30
10133;DHT22;5106;50.926;7.080;2022-12-05T19:06:25;2.20;89.30
10133;DHT22;5106;50.926;7.080;2022-12-05T19:08:55;2.20;89.30
10133;DHT22;5106;50.926;7.080;2022-12-05T19:11:23;2.20;89.10